Time;durP1;ratioP1;P1;durP2;ratioP2;P2;SDS_P1;SDS_P2;PMS_P1;PMS_P2;Temp;Humidity;BMP_temperature;BMP_pressure;BME280_temperature;BME280_humidity;BME280_pressure;Samples;Min_cycle;Max_cycle;Signal;HPM_P1;HPM_P2
2022/11/02 00:01:44;;;;;;;6.95;1.13;;;11.80;99.90;;;;;;5254803;22;20070;-80
2022/11/02 00:04:14;;;;;;;;;;;11.70;99.90;;;;;;4963130;28;20039;-80
2022/11/02 00:07:41;;;;;;;3.85;1.30;;;11.70;99.90;;;;;;4965998;28;19919;-81
2022/11/02 00:10:42;;;;;;;5.65;1.60;;;11.70;99.90;;;;;;4967455;28;20401;-82
2022/11/02 00:14:00;;;;;;;5.75;1.52;;;11.70;99.90;;;;;;4966319;28;20053;-81
2022/11/02 00:17:06;;;;;;;5.75;1.38;;;11.60;99.90;;;;;;4953575;29;20130;-81
2022/11/02 00:27:08;;;;;;;6.55;1.75;;;11.60;99.90;;;;;;4975262;28;20046;-79
2022/11/02 00:33:05;;;;;;;11.68;2.35;;;11.70;99.90;;;;;;4976946;28;20054;-79
2022/11/02 00:35:48;;;;;;;7.35;2.10;;;11.70;99.90;;;;;;4941300;28;20035;-78
2022/11/02 00:38:17;;;;;;;;;;;11.70;99.90;;;;;;4956146;28;20046;-77
2022/11/02 00:40:43;;;;;;;9.98;2.13;;;11.60;99.90;;;;;;4954950;28;19925;-77
2022/11/02 00:43:12;;;;;;;10.63;1.80;;;11.60;99.90;;;;;;4940885;28;20445;-77
2022/11/02 00:45:39;;;;;;;8.70;2.40;;;11.60;99.90;;;;;;4938917;28;20051;-78
2022/11/02 00:48:10;;;;;;;8.52;2.47;;;11.50;99.90;;;;;;4953505;28;20035;-77
2022/11/02 00:50:40;;;;;;;10.35;2.20;;;11.50;99.90;;;;;;4932353;28;20051;-77
2022/11/02 00:53:17;;;;;;;9.30;2.50;;;11.50;99.90;;;;;;4939556;28;20053;-77
2022/11/02 00:55:52;;;;;;;8.57;1.90;;;11.40;99.90;;;;;;4939056;28;20483;-77
2022/11/02 00:58:18;;;;;;;8.80;2.28;;;11.40;99.90;;;;;;4940092;28;20462;-77
2022/11/02 01:00:44;;;;;;;10.77;2.70;;;11.40;99.90;;;;;;4943337;28;20365;-78
2022/11/02 01:03:13;;;;;;;7.43;2.40;;;11.40;99.90;;;;;;4942876;28;20043;-78
2022/11/02 01:05:45;;;;;;;8.70;2.33;;;11.40;99.90;;;;;;4941970;28;20046;-78
2022/11/02 01:08:13;;;;;;;10.35;2.67;;;11.40;99.90;;;;;;4954442;28;20098;-78
2022/11/02 01:10:51;;;;;;;5.97;2.33;;;11.30;99.90;;;;;;4943948;28;20046;-79
2022/11/02 01:13:20;;;;;;;7.38;2.63;;;11.30;99.90;;;;;;4960617;28;20078;-78
2022/11/02 01:15:49;;;;;;;10.02;2.80;;;11.40;99.90;;;;;;4942046;28;20058;-78
2022/11/02 01:18:35;;;;;;;9.27;2.30;;;11.30;99.90;;;;;;4967393;28;20081;-78
2022/11/02 01:21:04;;;;;;;6.82;2.15;;;11.20;99.90;;;;;;4941112;28;20039;-79
2022/11/02 01:23:41;;;;;;;11.10;2.42;;;11.20;99.90;;;;;;4943526;28;20047;-79
2022/11/02 01:26:10;;;;;;;6.45;2.50;;;11.20;99.90;;;;;;4957126;28;20055;-79
2022/11/02 01:28:38;;;;;;;12.05;2.72;;;11.20;99.90;;;;;;4974243;28;20539;-79
2022/11/02 01:31:06;;;;;;;12.57;2.75;;;11.20;99.90;;;;;;4934791;29;20111;-78
2022/11/02 01:33:36;;;;;;;9.85;2.70;;;11.10;99.90;;;;;;4936590;28;20050;-78
2022/11/02 01:36:05;;;;;;;10.98;2.85;;;11.10;99.90;;;;;;4939667;28;20047;-79
2022/11/02 01:38:33;;;;;;;13.38;3.00;;;11.10;99.90;;;;;;4934358;28;20097;-79
2022/11/02 01:41:10;;;;;;;9.60;2.47;;;11.10;99.90;;;;;;4956999;28;20039;-79
2022/11/02 01:43:51;;;;;;;8.07;2.67;;;11.20;99.90;;;;;;4945418;28;20046;-79
2022/11/02 01:46:47;;;;;;;10.13;2.70;;;11.20;99.90;;;;;;4925265;29;20054;-78
2022/11/02 01:49:18;;;;;;;7.13;2.40;;;11.20;99.90;;;;;;4942037;28;20528;-78
2022/11/02 01:52:01;;;;;;;12.18;2.70;;;11.20;99.90;;;;;;4942204;28;20050;-78
2022/11/02 01:54:31;;;;;;;12.27;2.85;;;11.20;99.90;;;;;;4938438;29;20043;-78
2022/11/02 01:57:02;;;;;;;11.85;2.95;;;11.20;99.90;;;;;;4938428;28;20496;-79
2022/11/02 01:59:37;;;;;;;7.85;3.15;;;11.20;99.90;;;;;;4942580;28;20092;-78
2022/11/02 02:02:16;;;;;;;10.95;2.92;;;11.20;99.90;;;;;;4952814;28;20039;-80
2022/11/02 02:04:44;;;;;;;12.48;3.35;;;11.30;99.90;;;;;;4942486;28;20035;-77
2022/11/02 02:07:13;;;;;;;12.75;3.13;;;11.30;99.90;;;;;;4974235;28;20038;-76
2022/11/02 02:09:46;;;;;;;12.88;3.38;;;11.30;99.90;;;;;;4936604;28;20086;-78
2022/11/02 02:12:12;;;;;;;7.13;2.25;;;11.30;99.90;;;;;;4954168;28;20047;-78
2022/11/02 02:14:42;;;;;;;5.13;1.55;;;11.30;99.90;;;;;;4941665;28;20508;-78
2022/11/02 02:17:34;;;;;;;3.92;1.10;;;11.20;99.90;;;;;;4949532;28;20070;-78
2022/11/02 02:20:02;;;;;;;7.40;2.42;;;11.10;99.90;;;;;;4941776;28;20031;-78
2022/11/02 02:22:45;;;;;;;7.90;2.10;;;11.00;99.90;;;;;;4951109;28;20042;-79
2022/11/02 02:25:40;;;;;;;7.43;2.78;;;10.90;99.90;;;;;;4935942;28;20034;-79
2022/11/02 02:28:44;;;;;;;8.07;2.85;;;10.80;99.90;;;;;;4942762;28;20050;-78
2022/11/02 02:31:32;;;;;;;7.18;2.50;;;10.80;99.90;;;;;;4933423;28;20050;-78
2022/11/02 02:34:22;;;;;;;8.00;2.33;;;10.80;99.90;;;;;;4974728;28;20038;-78
2022/11/02 02:37:06;;;;;;;6.32;2.20;;;10.80;99.90;;;;;;4941695;28;20062;-78
2022/11/02 02:39:38;;;;;;;8.20;2.22;;;10.80;99.90;;;;;;4942390;28;20039;-78
2022/11/02 02:42:18;;;;;;;7.40;2.03;;;10.70;99.90;;;;;;4975159;28;20046;-79
2022/11/02 02:45:10;;;;;;;5.85;1.73;;;10.80;99.90;;;;;;4943548;28;20046;-77
2022/11/02 02:47:46;;;;;;;5.13;1.85;;;10.80;99.90;;;;;;4935835;28;20082;-77
2022/11/02 02:50:24;;;;;;;6.82;1.50;;;10.70;99.90;;;;;;4936855;28;20048;-78
2022/11/02 02:52:52;;;;;;;4.88;0.95;;;10.70;99.90;;;;;;4942771;28;20122;-79
2022/11/02 02:55:26;;;;;;;5.32;1.40;;;10.70;99.90;;;;;;4941454;28;20090;-77
2022/11/02 02:57:55;;;;;;;3.92;0.98;;;10.60;99.90;;;;;;4940454;28;20046;-79
2022/11/02 03:00:21;;;;;;;5.10;1.13;;;10.50;99.90;;;;;;4932438;28;20516;-77
2022/11/02 03:03:08;;;;;;;4.30;1.05;;;10.50;99.90;;;;;;4935065;29;20047;-78
2022/11/02 03:05:35;;;;;;;3.72;1.05;;;10.30;99.90;;;;;;4943754;29;20043;-79
2022/11/02 03:08:09;;;;;;;3.42;1.13;;;10.20;99.90;;;;;;4938171;28;20544;-78
2022/11/02 03:10:43;;;;;;;2.70;0.77;;;10.20;99.90;;;;;;4936419;29;20121;-78
2022/11/02 03:13:35;;;;;;;5.63;1.33;;;10.10;99.90;;;;;;4937918;28;20494;-79
2022/11/02 03:16:10;;;;;;;6.18;0.70;;;10.00;99.90;;;;;;4940780;28;20466;-77
2022/11/02 03:18:52;;;;;;;4.15;1.17;;;9.90;99.90;;;;;;4940973;28;20049;-78
2022/11/02 03:21:18;;;;;;;5.20;0.82;;;9.90;99.90;;;;;;4931700;28;20067;-78
2022/11/02 03:24:00;;;;;;;6.25;0.98;;;9.80;99.90;;;;;;4939410;28;20077;-78
2022/11/02 03:26:41;;;;;;;6.25;0.98;;;9.80;99.90;;;;;;4929571;29;20057;-78
2022/11/02 03:29:10;;;;;;;3.42;1.02;;;9.80;99.90;;;;;;4937391;28;20366;-78
2022/11/02 03:31:45;;;;;;;7.70;1.10;;;9.70;99.90;;;;;;4931878;28;20047;-77
2022/11/02 03:34:21;;;;;;;5.82;1.35;;;9.70;99.90;;;;;;4940705;28;20042;-77
2022/11/02 03:37:06;;;;;;;4.82;0.80;;;9.70;99.90;;;;;;4950423;29;20103;-77
2022/11/02 03:39:40;;;;;;;7.50;1.45;;;9.80;99.90;;;;;;4940349;28;20061;-77
2022/11/02 03:42:12;;;;;;;6.07;1.10;;;9.80;99.90;;;;;;4955793;28;20177;-79
2022/11/02 03:44:39;;;;;;;7.30;1.48;;;9.80;99.90;;;;;;4940387;28;20145;-78
2022/11/02 03:47:09;;;;;;;7.93;1.67;;;9.80;99.90;;;;;;4940374;28;20382;-77
2022/11/02 03:49:41;;;;;;;5.95;1.17;;;9.80;99.90;;;;;;4931619;28;20485;-78
2022/11/02 03:52:13;;;;;;;7.38;1.33;;;9.80;99.90;;;;;;4933409;28;20054;-79
2022/11/02 03:55:14;;;;;;;6.18;1.42;;;9.90;99.90;;;;;;4936700;28;20130;-78
2022/11/02 03:57:44;;;;;;;4.40;0.98;;;9.90;99.90;;;;;;4933061;28;20061;-78
2022/11/02 04:00:25;;;;;;;6.00;1.33;;;9.90;99.90;;;;;;4939372;28;20050;-78
2022/11/02 04:03:07;;;;;;;3.58;1.17;;;9.90;99.90;;;;;;4939523;28;20078;-79
2022/11/02 04:05:36;;;;;;;3.70;1.30;;;9.90;99.90;;;;;;4932092;28;20072;-79
2022/11/02 04:08:21;;;;;;;6.28;1.50;;;9.90;99.90;;;;;;4939686;28;20413;-78
2022/11/02 04:16:23;;;;;;;6.00;1.58;;;9.90;99.90;;;;;;4945109;28;20078;-78
2022/11/02 04:21:36;;;;;;;5.18;1.42;;;9.90;99.90;;;;;;4947908;28;20048;-79
2022/11/02 04:26:49;;;;;;;6.43;1.60;;;9.90;99.90;;;;;;4954800;28;20038;-77
2022/11/02 04:29:18;;;;;;;5.82;2.38;;;9.90;99.90;;;;;;4971723;28;20424;-78
2022/11/02 04:31:47;;;;;;;5.93;1.45;;;9.90;99.90;;;;;;4933973;29;20430;-78
2022/11/02 04:34:12;;;;;;;7.28;2.30;;;9.90;99.90;;;;;;4935720;28;20051;-77
2022/11/02 04:36:39;;;;;;;6.70;2.30;;;9.90;99.90;;;;;;4939799;28;20513;-79
2022/11/02 04:39:05;;;;;;;8.65;1.85;;;9.90;99.90;;;;;;4955617;28;20049;-78
2022/11/02 04:41:45;;;;;;;8.30;2.22;;;10.00;99.90;;;;;;4955142;28;20042;-78
2022/11/02 04:44:19;;;;;;;6.97;2.15;;;10.00;99.90;;;;;;4937256;28;20034;-78
2022/11/02 04:46:45;;;;;;;7.53;2.22;;;10.00;99.90;;;;;;4933590;28;20702;-78
2022/11/02 04:49:14;;;;;;;10.68;2.08;;;10.10;99.90;;;;;;4954931;28;20050;-78
2022/11/02 04:51:40;;;;;;;8.07;1.98;;;10.10;99.90;;;;;;4934682;28;20082;-79
2022/11/02 04:54:14;;;;;;;7.35;1.85;;;10.20;99.90;;;;;;4954939;28;20046;-79
2022/11/02 04:56:42;;;;;;;7.68;1.80;;;10.20;99.90;;;;;;4955567;28;20049;-79
2022/11/02 04:59:14;;;;;;;7.10;2.25;;;10.20;99.90;;;;;;4956142;28;20073;-78
2022/11/02 05:01:42;;;;;;;9.20;1.80;;;10.10;99.90;;;;;;4950187;28;20051;-78
2022/11/02 05:04:11;;;;;;;6.30;2.08;;;10.20;99.90;;;;;;4937384;28;20039;-78
2022/11/02 05:06:48;;;;;;;9.48;2.45;;;10.20;99.90;;;;;;4940658;28;20129;-78
2022/11/02 05:09:16;;;;;;;8.98;2.55;;;10.20;99.90;;;;;;4939318;28;20097;-77
2022/11/02 05:11:45;;;;;;;9.60;2.28;;;10.20;99.90;;;;;;4938754;28;20087;-77
2022/11/02 05:14:10;;;;;;;9.10;2.10;;;10.20;99.90;;;;;;4937229;28;20045;-78
2022/11/02 05:19:25;;;;;;;10.73;3.08;;;10.30;99.90;;;;;;4971108;28;20043;-78
2022/11/02 05:21:56;;;;;;;12.48;2.65;;;10.40;99.90;;;;;;4934628;28;20614;-78
2022/11/02 05:24:22;;;;;;;9.82;2.75;;;10.30;99.90;;;;;;4938866;28;20051;-77
2022/11/02 05:26:48;;;;;;;16.13;3.22;;;10.30;99.90;;;;;;4939459;28;20050;-77
2022/11/02 05:29:34;;;;;;;16.45;3.25;;;10.20;99.90;;;;;;4939083;28;20121;-78
2022/11/02 05:32:14;;;;;;;16.60;3.08;;;10.30;99.90;;;;;;4939479;28;20108;-78
2022/11/02 05:34:45;;;;;;;13.30;3.35;;;10.20;99.90;;;;;;4942896;28;20039;-78
2022/11/02 05:37:13;;;;;;;13.63;3.35;;;10.20;99.90;;;;;;4955091;28;20509;-78
2022/11/02 05:39:48;;;;;;;12.50;3.15;;;10.20;99.90;;;;;;4940840;28;20098;-78
2022/11/02 05:42:14;;;;;;;;;;;10.30;99.90;;;;;;4939098;28;20035;-78
2022/11/02 05:44:40;;;;;;;11.40;3.17;;;10.20;99.90;;;;;;4957221;28;19942;-77
2022/11/02 05:47:06;;;;;;;16.33;3.30;;;10.20;99.90;;;;;;4934929;28;20043;-77
2022/11/02 05:49:47;;;;;;;8.85;3.10;;;10.20;99.90;;;;;;4961092;28;20046;-77
2022/11/02 05:52:18;;;;;;;11.90;3.67;;;10.20;99.90;;;;;;4941682;28;20038;-78
2022/11/02 05:54:50;;;;;;;14.40;3.63;;;10.20;99.90;;;;;;4943159;28;20060;-78
2022/11/02 05:57:19;;;;;;;14.73;4.27;;;10.30;99.90;;;;;;4958068;28;20042;-78
2022/11/02 05:59:47;;;;;;;11.50;2.92;;;10.20;99.90;;;;;;4942183;28;20034;-77
2022/11/02 06:02:18;;;;;;;10.20;2.90;;;10.20;99.90;;;;;;4957661;28;20073;-78
2022/11/02 06:04:43;;;;;;;15.93;4.05;;;10.10;99.90;;;;;;4933195;28;20030;-77
2022/11/02 06:07:31;;;;;;;29.42;4.50;;;10.10;99.90;;;;;;4941678;28;20101;-77
2022/11/02 06:10:42;;;;;;;16.52;3.58;;;10.10;99.90;;;;;;4973385;28;20410;-78
2022/11/02 06:13:12;;;;;;;18.02;3.88;;;10.20;99.90;;;;;;4881354;29;20085;-79
2022/11/02 06:15:52;;;;;;;18.38;4.03;;;10.10;99.90;;;;;;4907620;28;20572;-78
2022/11/02 06:18:31;;;;;;;16.00;3.88;;;10.10;99.90;;;;;;4938528;29;20039;-78
2022/11/02 06:21:13;;;;;;;18.70;3.35;;;10.10;99.90;;;;;;4926984;28;20039;-78
2022/11/02 06:23:52;;;;;;;12.50;3.65;;;10.10;99.90;;;;;;4940853;28;20510;-78
2022/11/02 06:26:41;;;;;;;20.23;3.63;;;10.10;99.90;;;;;;4942102;28;20464;-78
2022/11/02 06:29:14;;;;;;;17.15;3.55;;;10.10;99.90;;;;;;4933719;28;20047;-78
2022/11/02 06:32:12;;;;;;;12.57;3.03;;;10.10;99.90;;;;;;4924076;28;20039;-78
2022/11/02 06:34:41;;;;;;;14.05;3.20;;;10.10;99.90;;;;;;4940334;29;20047;-78
2022/11/02 06:37:34;;;;;;;19.58;3.20;;;10.00;99.90;;;;;;4939287;29;20056;-79
2022/11/02 06:40:14;;;;;;;22.25;3.90;;;10.00;99.90;;;;;;4938665;29;20054;-79
2022/11/02 06:42:42;;;;;;;12.13;2.87;;;9.90;99.90;;;;;;4953285;28;20478;-78
2022/11/02 06:45:18;;;;;;;13.95;3.58;;;9.90;99.90;;;;;;4973908;28;20289;-78
2022/11/02 06:47:55;;;;;;;19.42;3.88;;;9.90;99.90;;;;;;4957546;28;20039;-79
2022/11/02 06:50:29;;;;;;;20.77;3.42;;;10.00;99.90;;;;;;4941986;28;20517;-79
2022/11/02 06:52:54;;;;;;;11.70;3.00;;;9.90;99.90;;;;;;4955757;28;20042;-79
2022/11/02 06:55:23;;;;;;;12.55;2.80;;;9.90;99.90;;;;;;4943662;28;20058;-77
2022/11/02 06:57:51;;;;;;;23.33;4.68;;;9.80;99.90;;;;;;4940000;28;20120;-78
2022/11/02 07:00:21;;;;;;;13.85;3.08;;;9.80;99.90;;;;;;4937422;28;20097;-78
2022/11/02 07:06:08;;;;;;;22.92;3.72;;;9.90;99.90;;;;;;4950215;28;20156;-78
2022/11/02 07:09:01;;;;;;;;;;;;;;;;;;;;;
2022/11/02 07:11:44;;;;;;;19.05;3.95;;;10.00;99.90;;;;;;5021253;23;20122;-78
2022/11/02 07:14:15;;;;;;;15.95;3.20;;;10.10;99.90;;;;;;4962344;28;20043;-78
2022/11/02 07:16:46;;;;;;;16.00;4.13;;;10.10;99.90;;;;;;4998381;28;20040;-79
2022/11/02 07:19:18;;;;;;;21.83;4.00;;;10.20;99.90;;;;;;4985745;28;20039;-78
2022/11/02 07:21:59;;;;;;;19.27;3.20;;;10.20;99.90;;;;;;4957258;28;20091;-77
2022/11/02 07:24:33;;;;;;;11.00;2.75;;;10.30;99.90;;;;;;4943599;28;20513;-78
2022/11/02 07:27:04;;;;;;;18.75;3.95;;;10.30;99.90;;;;;;4959734;28;20193;-78
2022/11/02 07:29:30;;;;;;;15.07;2.90;;;10.30;99.90;;;;;;4986150;28;20045;-78
2022/11/02 07:31:56;;;;;;;13.95;2.67;;;10.30;99.90;;;;;;4977827;28;20049;-78
2022/11/02 07:34:22;;;;;;;13.95;3.08;;;10.30;99.90;;;;;;4997677;28;20077;-77
2022/11/02 07:36:49;;;;;;;13.65;2.92;;;10.40;99.90;;;;;;4989882;28;20038;-78
2022/11/02 07:39:18;;;;;;;14.02;2.80;;;10.40;99.90;;;;;;4969183;28;20038;-77
2022/11/02 07:41:46;;;;;;;14.60;2.65;;;10.50;99.90;;;;;;4957833;28;20073;-78
2022/11/02 07:44:17;;;;;;;12.52;2.50;;;10.50;99.90;;;;;;4954628;28;20034;-79
2022/11/02 07:46:45;;;;;;;10.20;2.33;;;10.50;99.90;;;;;;4969605;28;20132;-77
2022/11/02 07:49:11;;;;;;;11.40;2.20;;;10.60;99.90;;;;;;4967638;28;20533;-77
2022/11/02 07:51:37;;;;;;;15.20;3.10;;;10.50;99.90;;;;;;4976780;28;20117;-78
2022/11/02 07:54:02;;;;;;;13.63;2.38;;;10.60;99.90;;;;;;4963838;28;20069;-76
2022/11/02 07:56:28;;;;;;;10.75;2.53;;;10.60;99.90;;;;;;4967326;28;20038;-77
2022/11/02 07:58:56;;;;;;;11.18;2.55;;;10.60;99.90;;;;;;4951973;28;20042;-77
2022/11/02 08:01:24;;;;;;;12.20;2.20;;;10.60;99.90;;;;;;4952047;28;20049;-76
2022/11/02 08:03:57;;;;;;;8.68;2.00;;;10.60;99.90;;;;;;4962476;28;20147;-80
2022/11/02 08:06:23;;;;;;;;;;;10.60;99.90;;;;;;4984536;28;20101;-78
2022/11/02 08:11:25;;;;;;;10.52;2.40;;;10.60;99.90;;;;;;5009277;22;20441;-78
2022/11/02 08:14:13;;;;;;;10.25;1.95;;;10.60;99.90;;;;;;4958144;28;20047;-78
2022/11/02 08:16:46;;;;;;;8.25;1.80;;;10.60;99.90;;;;;;4957842;28;20039;-78
2022/11/02 08:19:12;;;;;;;10.32;1.95;;;10.70;99.90;;;;;;4958697;28;20042;-78
2022/11/02 08:21:47;;;;;;;12.50;1.60;;;10.80;99.90;;;;;;4948011;28;20042;-78
2022/11/02 08:24:16;;;;;;;8.93;1.85;;;10.80;99.90;;;;;;4943510;28;20042;-77
2022/11/02 08:26:49;;;;;;;9.07;1.70;;;10.90;99.90;;;;;;4939761;28;20138;-77
2022/11/02 08:29:18;;;;;;;11.32;2.20;;;10.80;99.90;;;;;;4942149;28;20101;-78
2022/11/02 08:31:44;;;;;;;7.72;1.60;;;10.80;99.90;;;;;;4939819;28;20043;-77
2022/11/02 08:34:10;;;;;;;8.82;1.70;;;10.80;99.90;;;;;;4938363;28;20057;-78
2022/11/02 08:36:36;;;;;;;8.27;1.73;;;10.80;99.90;;;;;;4939654;28;20066;-77
2022/11/02 08:39:05;;;;;;;7.65;1.60;;;10.80;99.90;;;;;;4934288;28;20441;-77
2022/11/02 08:41:44;;;;;;;8.68;2.03;;;10.80;99.90;;;;;;4938562;28;20030;-76
2022/11/02 08:44:12;;;;;;;8.32;1.90;;;10.80;99.90;;;;;;4936077;28;20465;-77
2022/11/02 08:46:45;;;;;;;6.53;1.90;;;10.80;99.90;;;;;;4947854;28;20054;-76
2022/11/02 08:49:13;;;;;;;7.82;1.63;;;10.90;99.90;;;;;;4941027;28;20038;-78
2022/11/02 08:51:41;;;;;;;10.70;2.25;;;10.90;99.90;;;;;;4938790;29;20512;-78
2022/11/02 08:54:16;;;;;;;14.63;2.45;;;11.00;99.90;;;;;;4941481;28;20038;-80
2022/11/02 08:56:48;;;;;;;8.10;1.58;;;11.00;99.90;;;;;;4962947;28;20125;-78
2022/11/02 08:59:15;;;;;;;7.72;1.30;;;11.00;99.90;;;;;;4945928;28;20037;-77
2022/11/02 09:01:41;;;;;;;7.38;1.27;;;11.00;99.90;;;;;;4946186;28;20045;-79
2022/11/02 09:08:27;;;;;;;7.88;1.88;;;11.10;99.90;;;;;;4910647;29;20060;-79
2022/11/02 09:11:05;;;;;;;7.95;1.65;;;11.10;99.90;;;;;;4897733;29;20051;-78
2022/11/02 09:13:59;;;;;;;7.40;1.50;;;11.10;99.90;;;;;;4902379;29;20068;-80
2022/11/02 09:16:37;;;;;;;8.48;1.40;;;11.20;99.90;;;;;;4917927;29;20069;-79
2022/11/02 09:19:23;;;;;;;10.65;1.55;;;11.20;99.90;;;;;;4902753;29;20100;-80
2022/11/02 09:21:50;;;;;;;7.45;1.48;;;11.20;99.90;;;;;;4898832;29;20045;-81
2022/11/02 09:24:19;;;;;;;8.30;1.60;;;11.20;99.90;;;;;;4962445;28;20043;-80
2022/11/02 09:27:03;;;;;;;7.80;1.77;;;11.30;99.90;;;;;;4966796;28;20443;-80
2022/11/02 09:29:37;;;;;;;7.40;1.70;;;11.30;99.90;;;;;;4951915;28;20039;-79
2022/11/02 09:32:51;;;;;;;9.13;1.50;;;11.40;99.90;;;;;;4956722;28;20048;-80
2022/11/02 09:35:41;;;;;;;7.15;1.65;;;11.40;99.90;;;;;;4969558;28;20039;-79
2022/11/02 09:38:12;;;;;;;7.57;1.65;;;11.50;99.90;;;;;;4963702;28;20047;-79
2022/11/02 09:41:00;;;;;;;7.80;1.70;;;11.60;99.90;;;;;;4945205;28;20122;-78
2022/11/02 09:44:02;;;;;;;8.52;1.60;;;11.80;99.90;;;;;;4964052;28;20035;-78
2022/11/02 09:46:41;;;;;;;9.35;2.20;;;11.90;99.90;;;;;;4944248;28;20042;-78
2022/11/02 09:49:19;;;;;;;7.15;1.90;;;12.00;99.90;;;;;;4943059;28;20122;-79
2022/11/02 09:51:48;;;;;;;8.15;1.45;;;12.10;99.90;;;;;;4943056;28;20097;-79
2022/11/02 09:54:35;;;;;;;10.40;2.05;;;12.10;99.90;;;;;;4957801;28;20509;-78
2022/11/02 09:57:05;;;;;;;8.50;1.35;;;12.20;99.90;;;;;;4943251;28;20097;-78
2022/11/02 09:59:32;;;;;;;8.85;1.60;;;12.20;99.90;;;;;;4950152;28;20042;-79
2022/11/02 10:02:25;;;;;;;5.70;1.92;;;12.20;99.90;;;;;;4942660;28;20031;-78
2022/11/02 10:05:02;;;;;;;8.95;1.40;;;12.20;99.90;;;;;;4958858;28;20135;-80
2022/11/02 10:08:08;;;;;;;5.30;1.35;;;12.10;99.90;;;;;;4948776;28;20043;-79
2022/11/02 10:10:53;;;;;;;9.07;1.58;;;12.20;99.90;;;;;;4936771;28;20043;-79
2022/11/02 10:13:36;;;;;;;6.90;1.40;;;12.20;99.90;;;;;;4946683;28;20105;-78
2022/11/02 10:16:16;;;;;;;7.65;1.50;;;12.20;99.90;;;;;;4959211;28;20047;-78
2022/11/02 10:18:47;;;;;;;11.40;1.70;;;12.20;99.90;;;;;;4956647;28;20489;-79
2022/11/02 10:21:35;;;;;;;9.13;1.85;;;12.20;99.90;;;;;;4958979;28;20082;-78
2022/11/02 10:24:47;;;;;;;6.60;1.45;;;12.30;99.90;;;;;;4941971;28;20039;-79
2022/11/02 10:27:28;;;;;;;8.80;2.10;;;12.30;99.90;;;;;;4942409;28;20055;-79
2022/11/02 10:30:14;;;;;;;8.00;1.50;;;12.50;99.90;;;;;;4940187;28;20569;-79
2022/11/02 10:32:44;;;;;;;5.30;1.42;;;12.70;99.90;;;;;;4943147;28;20030;-78
2022/11/02 10:35:37;;;;;;;8.32;1.67;;;12.80;99.90;;;;;;4944903;28;20062;-81
2022/11/02 10:38:15;;;;;;;12.68;1.70;;;12.90;99.90;;;;;;4955426;28;20035;-81
2022/11/02 10:41:09;;;;;;;7.03;1.30;;;13.00;99.90;;;;;;4962528;28;20035;-81
2022/11/02 10:44:03;;;;;;;7.35;1.38;;;13.00;99.90;;;;;;4936992;28;20387;-79
2022/11/02 10:47:04;;;;;;;5.05;1.33;;;13.10;99.90;;;;;;4952881;28;20046;-80
2022/11/02 10:50:20;;;;;;;6.25;1.20;;;13.20;99.90;;;;;;4948955;28;20039;-80
2022/11/02 10:52:49;;;;;;;5.78;1.27;;;13.20;99.90;;;;;;4944524;28;20117;-80
2022/11/02 10:55:43;;;;;;;5.65;1.23;;;13.30;99.90;;;;;;4962635;28;20046;-80
2022/11/02 10:58:34;;;;;;;;;;;13.20;99.90;;;;;;4944061;28;20039;-82
2022/11/02 11:02:06;;;;;;;;;;;;;;;;;;;;;
2022/11/02 11:04:56;;;;;;;10.27;1.48;;;13.20;99.90;;;;;;4946306;28;20053;-78
2022/11/02 11:07:26;;;;;;;8.75;1.88;;;13.20;99.90;;;;;;4944185;28;20046;-78
2022/11/02 11:17:18;;;;;;;8.70;1.33;;;13.20;99.90;;;;;;4966393;28;20062;-79
2022/11/02 11:19:52;;;;;;;8.98;1.60;;;13.10;99.90;;;;;;4904932;29;20051;-77
2022/11/02 11:23:06;;;;;;;7.63;1.48;;;13.10;99.90;;;;;;5003255;28;20526;-78
2022/11/02 11:25:41;;;;;;;9.82;2.05;;;13.00;99.90;;;;;;4992986;23;20465;-80
2022/11/02 11:28:26;;;;;;;7.18;1.80;;;13.00;99.90;;;;;;4992468;28;20392;-81
2022/11/02 11:31:12;;;;;;;5.90;1.00;;;13.00;99.90;;;;;;4992593;28;20064;-84
2022/11/02 11:33:58;;;;;;;6.53;1.35;;;13.00;99.90;;;;;;4992495;28;20074;-82
2022/11/02 11:36:29;;;;;;;6.30;1.00;;;13.30;99.90;;;;;;4988504;28;20082;-82
2022/11/02 11:38:58;;;;;;;4.38;1.40;;;13.50;99.90;;;;;;4968747;28;20043;-82
2022/11/02 11:41:24;;;;;;;7.82;1.42;;;13.50;99.90;;;;;;4972089;28;20039;-79
2022/11/02 11:43:51;;;;;;;4.07;1.10;;;13.60;99.90;;;;;;4988379;28;20126;-80
2022/11/02 11:46:17;;;;;;;5.75;0.95;;;13.80;99.90;;;;;;4987326;28;20039;-79
2022/11/02 11:48:50;;;;;;;6.25;0.95;;;13.90;99.90;;;;;;4971891;28;20043;-80
2022/11/02 11:51:22;;;;;;;;;;;13.90;99.90;;;;;;4987515;28;20481;-80
2022/11/02 11:54:16;;;;;;;5.28;1.00;;;14.00;99.90;;;;;;4967731;28;20009;-79
2022/11/02 11:56:42;;;;;;;4.43;1.00;;;14.20;99.90;;;;;;4958251;28;20129;-80
2022/11/02 11:59:22;;;;;;;3.78;1.00;;;14.30;99.90;;;;;;4954119;28;20125;-79
2022/11/02 12:01:49;;;;;;;8.38;1.23;;;14.60;99.90;;;;;;4956846;28;20089;-79
2022/11/02 12:04:26;;;;;;;6.45;2.00;;;14.80;99.90;;;;;;4987870;28;20118;-80
2022/11/02 12:06:54;;;;;;;5.60;0.80;;;15.00;99.90;;;;;;4986818;28;20049;-79
2022/11/02 12:09:48;;;;;;;5.50;1.55;;;15.10;99.90;;;;;;4955614;28;20074;-79
2022/11/02 12:12:24;;;;;;;3.78;0.73;;;15.30;99.90;;;;;;4986944;28;20039;-80
2022/11/02 12:15:09;;;;;;;4.53;0.93;;;15.50;99.90;;;;;;4971548;28;20517;-80
2022/11/02 12:17:51;;;;;;;8.77;1.20;;;15.60;99.90;;;;;;4980840;28;20038;-79
2022/11/02 12:20:20;;;;;;;8.30;1.17;;;15.50;99.90;;;;;;4986557;28;20030;-80
2022/11/02 12:23:27;;;;;;;5.85;0.98;;;15.30;99.90;;;;;;4987479;28;20043;-79
2022/11/02 12:26:08;;;;;;;7.95;1.20;;;15.10;99.90;;;;;;4944687;28;20054;-78
2022/11/02 12:28:49;;;;;;;4.90;0.95;;;14.70;99.90;;;;;;4982932;28;20412;-79
2022/11/02 12:31:56;;;;;;;7.00;1.35;;;14.50;99.90;;;;;;4972025;28;20035;-80
2022/11/02 12:34:39;;;;;;;9.13;1.23;;;14.40;99.90;;;;;;4919352;29;20636;-79
2022/11/02 12:37:18;;;;;;;;;;;14.10;99.90;;;;;;4934010;29;20122;-79
2022/11/02 12:40:15;;;;;;;3.95;1.00;;;13.90;99.90;;;;;;4965822;28;19918;-78
2022/11/02 12:43:04;;;;;;;6.28;1.25;;;13.90;99.90;;;;;;4986233;28;20035;-78
2022/11/02 12:46:01;;;;;;;7.95;1.00;;;13.90;99.90;;;;;;4967833;28;20031;-78
2022/11/02 12:48:38;;;;;;;7.18;1.38;;;13.90;99.90;;;;;;4954115;28;20039;-79
2022/11/02 12:51:26;;;;;;;5.30;1.08;;;14.10;99.90;;;;;;4955112;28;20441;-77
2022/11/02 12:54:01;;;;;;;8.20;1.55;;;14.10;99.90;;;;;;4974989;28;20106;-78
2022/11/02 12:56:43;;;;;;;8.68;1.25;;;14.40;99.90;;;;;;4967642;28;20117;-78
2022/11/02 12:59:20;;;;;;;9.65;1.48;;;14.60;99.90;;;;;;4986171;28;20412;-78
2022/11/02 13:01:51;;;;;;;7.70;1.33;;;14.70;99.90;;;;;;4955939;28;20081;-77
2022/11/02 13:04:19;;;;;;;6.65;1.35;;;14.80;99.90;;;;;;4970326;28;20038;-78
2022/11/02 13:06:58;;;;;;;7.50;1.33;;;14.80;99.90;;;;;;4953926;28;20057;-78
2022/11/02 13:09:33;;;;;;;6.20;1.67;;;14.80;99.90;;;;;;4969949;28;20042;-79
2022/11/02 13:12:14;;;;;;;6.32;1.20;;;14.80;99.90;;;;;;4963956;28;20039;-79
2022/11/02 13:14:43;;;;;;;5.20;1.13;;;14.70;99.90;;;;;;4936688;29;20054;-78
2022/11/02 13:17:18;;;;;;;6.68;1.25;;;14.50;99.90;;;;;;4983419;28;20043;-78
2022/11/02 13:20:00;;;;;;;5.82;1.48;;;14.30;99.90;;;;;;4958297;28;20040;-78
2022/11/02 13:22:32;;;;;;;5.05;1.13;;;14.10;99.90;;;;;;4985335;28;20428;-80
2022/11/02 13:25:21;;;;;;;10.10;1.52;;;14.00;99.90;;;;;;4955435;28;20043;-79
2022/11/02 13:27:56;;;;;;;6.68;1.30;;;14.20;99.90;;;;;;4984758;28;20042;-78
2022/11/02 13:30:21;;;;;;;5.72;1.17;;;14.20;99.90;;;;;;4970801;28;20123;-79
2022/11/02 13:32:53;;;;;;;6.43;1.73;;;14.20;99.90;;;;;;4970957;28;20212;-80
2022/11/02 13:35:27;;;;;;;7.10;1.40;;;14.20;99.90;;;;;;4986015;28;20043;-78
2022/11/02 13:37:59;;;;;;;7.63;1.30;;;14.10;99.90;;;;;;4973052;28;20114;-79
2022/11/02 13:40:32;;;;;;;5.55;1.67;;;14.20;99.90;;;;;;4986559;28;20031;-79
2022/11/02 13:43:28;;;;;;;8.55;1.77;;;14.00;99.90;;;;;;4979894;28;20122;-78
2022/11/02 13:46:09;;;;;;;6.30;1.60;;;13.90;99.90;;;;;;4970856;28;20093;-79
2022/11/02 13:48:46;;;;;;;7.55;2.05;;;13.80;99.90;;;;;;4979307;28;20042;-78
2022/11/02 13:51:39;;;;;;;8.77;1.95;;;13.80;99.90;;;;;;4945898;28;20035;-79
2022/11/02 13:54:10;;;;;;;7.37;1.47;;;13.70;99.90;;;;;;4940727;28;20548;-78
2022/11/02 13:56:37;;;;;;;6.85;1.50;;;13.80;99.90;;;;;;4966686;28;20392;-78
2022/11/02 13:59:07;;;;;;;9.07;1.75;;;13.70;99.90;;;;;;4967681;28;20490;-80
2022/11/02 14:01:38;;;;;;;8.73;1.83;;;13.70;99.90;;;;;;4987026;28;20394;-81
2022/11/02 14:04:13;;;;;;;8.90;1.75;;;13.60;99.90;;;;;;4953288;28;20074;-81
2022/11/02 14:06:50;;;;;;;6.38;1.70;;;13.60;99.90;;;;;;4973843;28;20094;-81
2022/11/02 14:09:33;;;;;;;10.20;1.95;;;13.60;99.90;;;;;;4982453;28;20134;-80
2022/11/02 14:12:20;;;;;;;7.18;1.65;;;13.50;99.90;;;;;;4969608;28;20038;-80
2022/11/02 14:15:12;;;;;;;7.18;1.70;;;13.50;99.90;;;;;;4985186;28;20047;-81
2022/11/02 14:18:00;;;;;;;9.45;1.88;;;13.50;99.90;;;;;;4972454;28;20043;-80
2022/11/02 14:20:32;;;;;;;6.97;1.20;;;13.40;99.90;;;;;;4988860;28;20047;-80